Accueil
Images satellite Prévisions 15 joursClimatMétéo marine Cyclones Foudre AéroportsFAQ Actualités A propos
Météo : Europe Afrique Amérique du Nord Amérique du Sud Asie Australie-Océanie Autres
Langues Contact

Florennes, Belgique

Base aérienne

latitude: 50-14N, longitude: 004-39E, altitude: 279 m


METAR: EBFS 292155Z VRB03KT 9999 BKN050 14/12 Q1018 BLU
short-TAF: EBFS 291541Z 2919/3007 24010KT 9999 FEW020 SCT040 BECMG 3000/3002 26006KT FEW030 SCT100 BKN200
long-TAF: EBFS 291541Z 2919/3007 24010KT 9999 FEW020 SCT040 BECMG 3000/3002 26006KT FEW030 SCT100 BKN200

Heure: 00:23 (22:23 UTC)

Observation

Le bulletin a été fait il y a 28 minutes, à 21:55 UTC  
Vent 03 kt de direction variable
Température 14°C
Humidité 88%
Pression 1018 hPa
Visibilité 10 km ou plus
Nuages fragmentés à une hauteur de 5000 ft

Changer d'unités

Prévision

Le bulletin a été fait il y a 6 heures et 35 minutes, à 15:48 UTC  
Prévision valable du 29 à 19 UTC au 30 à 07 UTC
Vent 10 kt de ouest/sud-ouest
Visibilité 10 km ou plus
Quelques nuages à une hauteur de 2000 ft
Nuages épars à une hauteur de 4000 ft
Evoluant progressivement
du 30 à 00 UTC au 30 à 02 UTC
Vent 06 kt de ouest
Quelques nuages à une hauteur de 3000 ft
Nuages épars à une hauteur de 10000 ft
Nuages fragmentés à une hauteur de 20000 ft

Prévision

Le bulletin a été fait il y a 6 heures et 32 minutes, à 15:51 UTC  
Prévision valable du 29 à 19 UTC au 30 à 07 UTC
Vent 10 kt de ouest/sud-ouest
Visibilité 10 km ou plus
Quelques nuages à une hauteur de 2000 ft
Nuages épars à une hauteur de 4000 ft
Evoluant progressivement
du 30 à 00 UTC au 30 à 02 UTC
Vent 06 kt de ouest
Quelques nuages à une hauteur de 3000 ft
Nuages épars à une hauteur de 10000 ft
Nuages fragmentés à une hauteur de 20000 ft
Les informations qui figurent sur ce site font l'objet d'une clause de non-responsabilité
Météo : Europe Afrique Amérique du Nord Amérique du Sud Asie Australie-Océanie Autres
Images satellite Prévisions 15 joursClimatMétéo marine Cyclones Foudre AéroportsFAQ Langues Contact Actualités A propos